Time;durP1;ratioP1;P1;durP2;ratioP2;P2;SDS_P1;SDS_P2;PMS_P1;PMS_P2;Temp;Humidity;BMP_temperature;BMP_pressure;BME280_temperature;BME280_humidity;BME280_pressure;Samples;Min_cycle;Max_cycle;Signal;HPM_P1;HPM_P2
2024/01/04 00:00:38;;;;;;;8.20;1.85;;;9.30;99.90;;;;;;6113457;23;20452;-80
2024/01/04 00:03:10;;;;;;;10.35;2.08;;;9.30;99.90;;;;;;6103181;23;20013;-81
2024/01/04 00:05:41;;;;;;;9.70;1.70;;;8.50;99.90;;;;;;6103520;23;20017;-82
2024/01/04 00:08:10;;;;;;;7.13;1.70;;;10.00;99.90;;;;;;6103475;23;20002;-82
2024/01/04 00:10:40;;;;;;;7.18;1.83;;;9.50;99.90;;;;;;6103163;23;20010;-80
2024/01/04 00:13:09;;;;;;;10.00;1.83;;;9.30;99.90;;;;;;6104910;23;20106;-82
2024/01/04 00:15:37;;;;;;;4.78;1.23;;;9.40;99.90;;;;;;6104813;23;20026;-81
2024/01/04 00:18:07;;;;;;;7.05;1.67;;;10.10;99.90;;;;;;6104944;23;20006;-80
2024/01/04 00:20:36;;;;;;;10.10;1.98;;;8.00;99.90;;;;;;6079904;23;20510;-81
2024/01/04 00:23:04;;;;;;;4.68;1.23;;;8.50;99.90;;;;;;6103564;23;20013;-81
2024/01/04 00:25:39;;;;;;;6.57;1.58;;;9.40;99.90;;;;;;6101250;23;20018;-81
2024/01/04 00:28:10;;;;;;;6.00;1.23;;;7.70;99.90;;;;;;6104509;23;20334;-81
2024/01/04 00:30:38;;;;;;;3.35;1.90;;;9.40;99.90;;;;;;6103783;23;20080;-80
2024/01/04 00:33:07;;;;;;;8.13;1.73;;;8.90;99.90;;;;;;6104267;23;20026;-81
2024/01/04 00:35:35;;;;;;;6.10;1.38;;;8.70;99.90;;;;;;6106222;23;20098;-82
2024/01/04 00:38:06;;;;;;;5.38;1.20;;;9.80;99.90;;;;;;6106158;23;20010;-80
2024/01/04 00:40:41;;;;;;;3.65;1.20;;;9.50;99.90;;;;;;6104910;23;20337;-82
2024/01/04 00:43:10;;;;;;;5.47;1.10;;;8.40;99.90;;;;;;6102887;23;20065;-82
2024/01/04 00:45:39;;;;;;;7.20;0.95;;;9.60;99.90;;;;;;6103791;23;20010;-81
2024/01/04 00:48:26;;;;;;;7.13;1.23;;;9.60;99.90;;;;;;6103501;23;20006;-82
2024/01/04 00:51:22;;;;;;;4.90;1.30;;;9.60;99.90;;;;;;6105873;23;20023;-82
2024/01/04 00:53:51;;;;;;;5.95;1.10;;;9.00;99.90;;;;;;6105283;23;20011;-82
2024/01/04 00:56:50;;;;;;;4.75;1.02;;;9.60;99.90;;;;;;6127851;23;20057;-82
2024/01/04 00:59:25;;;;;;;4.63;1.00;;;9.80;99.90;;;;;;6106192;23;20082;-81
2024/01/04 01:02:02;;;;;;;5.82;1.08;;;9.60;99.90;;;;;;6112266;23;20017;-83
2024/01/04 01:04:39;;;;;;;5.88;1.00;;;9.70;99.90;;;;;;6116731;23;20046;-82
2024/01/04 01:07:11;;;;;;;6.40;1.10;;;9.30;99.90;;;;;;6105391;23;20029;-82
2024/01/04 01:09:55;;;;;;;5.65;1.20;;;9.60;99.90;;;;;;6106407;23;20071;-82
2024/01/04 01:12:36;;;;;;;6.07;1.33;;;;;;;;;;6105217;23;20002;-82
2024/01/04 01:15:11;;;;;;;4.63;1.10;;;9.50;99.90;;;;;;6106957;23;20116;-82
2024/01/04 01:17:47;;;;;;;5.18;0.75;;;9.50;99.90;;;;;;6108594;23;20011;-83
2024/01/04 01:20:27;;;;;;;2.63;0.80;;;9.50;99.90;;;;;;6109835;23;20018;-82
2024/01/04 01:22:55;;;;;;;3.05;1.00;;;;;;;;;;6116780;23;20033;-81
2024/01/04 01:25:28;;;;;;;5.40;1.17;;;;;;;;;;6118193;23;19983;-81
2024/01/04 01:27:56;;;;;;;5.55;0.80;;;;;;;;;;6116823;23;20018;-81
2024/01/04 01:30:24;;;;;;;5.85;1.08;;;;;;;;;;6116548;23;20049;-80
2024/01/04 01:32:54;;;;;;;4.43;1.20;;;;;;;;;;6115802;23;20006;-81
2024/01/04 01:35:23;;;;;;;3.50;0.88;;;9.70;99.90;;;;;;6114621;23;20018;-80
2024/01/04 01:37:55;;;;;;;4.10;0.88;;;9.70;99.90;;;;;;6105874;23;20041;-80
2024/01/04 01:40:22;;;;;;;3.65;0.93;;;9.60;99.90;;;;;;6104642;23;20014;-79
2024/01/04 01:42:49;;;;;;;6.50;1.35;;;9.60;99.90;;;;;;6109303;23;20077;-81
2024/01/04 01:45:21;;;;;;;3.88;1.17;;;7.00;99.90;;;;;;6083108;23;20069;-80
2024/01/04 01:47:48;;;;;;;5.28;0.90;;;9.70;99.90;;;;;;6102281;23;20003;-80
2024/01/04 01:50:21;;;;;;;4.43;1.38;;;9.70;99.90;;;;;;6102283;23;20006;-81
2024/01/04 01:52:53;;;;;;;3.55;0.90;;;9.90;99.90;;;;;;6106341;23;20014;-80
2024/01/04 01:55:21;;;;;;;3.35;1.33;;;9.70;99.90;;;;;;6129572;23;20002;-80
2024/01/04 01:57:51;;;;;;;3.83;1.08;;;9.80;99.90;;;;;;6104543;23;20003;-80
2024/01/04 02:00:20;;;;;;;3.92;0.75;;;10.20;99.90;;;;;;6102779;23;20351;-80
2024/01/04 02:02:49;;;;;;;4.25;0.90;;;9.70;99.90;;;;;;6104184;23;20073;-80
2024/01/04 02:05:18;;;;;;;6.57;1.40;;;9.70;99.90;;;;;;6103525;23;20361;-80
2024/01/04 02:07:45;;;;;;;6.57;1.00;;;9.00;99.90;;;;;;6104871;23;20009;-81
2024/01/04 02:10:14;;;;;;;5.07;1.15;;;9.60;99.90;;;;;;6102715;23;20014;-79
2024/01/04 02:12:41;;;;;;;4.82;1.02;;;9.50;99.90;;;;;;6103237;23;20014;-80
2024/01/04 02:15:14;;;;;;;4.82;1.02;;;10.50;99.90;;;;;;6104248;23;20077;-80
2024/01/04 02:17:44;;;;;;;2.53;0.73;;;9.60;99.90;;;;;;6078326;23;20089;-80
2024/01/04 02:20:11;;;;;;;2.83;0.88;;;;;;;;;;6104534;23;20071;-79
2024/01/04 02:22:46;;;;;;;5.75;1.65;;;9.10;99.90;;;;;;6105093;23;20006;-79
2024/01/04 02:25:13;;;;;;;5.03;1.05;;;9.80;99.90;;;;;;6103582;23;20006;-80
2024/01/04 02:27:40;;;;;;;4.82;1.08;;;9.90;99.90;;;;;;6102832;23;20310;-80
2024/01/04 02:30:07;;;;;;;6.13;1.10;;;9.70;99.90;;;;;;6104652;23;20022;-79
2024/01/04 02:32:33;;;;;;;6.30;1.50;;;;;;;;;;6102644;23;20453;-79
2024/01/04 02:38:04;;;;;;;3.28;0.95;;;9.40;99.90;;;;;;6078867;23;20029;-80
2024/01/04 02:40:38;;;;;;;4.20;1.00;;;10.80;99.90;;;;;;6093038;23;20010;-80
2024/01/04 02:43:09;;;;;;;3.03;1.13;;;12.00;99.90;;;;;;6103191;23;20013;-80
2024/01/04 02:45:39;;;;;;;;;;;9.50;99.90;;;;;;6101322;23;20003;-79
2024/01/04 02:58:45;;;;;;;5.67;0.90;;;9.60;99.90;;;;;;5799883;24;20069;-80
2024/01/04 03:02:26;;;;;;;2.92;0.80;;;9.60;99.90;;;;;;6107459;23;20488;-79
2024/01/04 03:04:59;;;;;;;7.18;1.23;;;9.90;99.90;;;;;;6093235;23;19998;-81
2024/01/04 03:07:27;;;;;;;5.80;1.00;;;9.60;99.90;;;;;;6100990;23;20350;-80
2024/01/04 03:09:58;;;;;;;4.07;0.90;;;9.60;99.90;;;;;;6098262;23;20006;-80
2024/01/04 03:12:27;;;;;;;6.05;1.08;;;9.60;99.90;;;;;;6098376;23;20027;-80
2024/01/04 03:14:53;;;;;;;5.30;0.88;;;9.50;99.90;;;;;;6103191;23;20077;-79
2024/01/04 03:17:20;;;;;;;7.50;1.30;;;9.50;99.90;;;;;;6102281;23;20065;-80
2024/01/04 03:19:49;;;;;;;2.72;0.90;;;9.40;99.90;;;;;;6101368;23;20265;-80
2024/01/04 03:22:19;;;;;;;11.85;1.67;;;8.80;99.90;;;;;;6101489;23;20025;-81
2024/01/04 03:24:48;;;;;;;7.07;1.08;;;9.50;99.90;;;;;;6078705;23;20010;-80
2024/01/04 03:27:32;;;;;;;6.68;1.15;;;9.60;99.90;;;;;;6104084;23;20042;-80
2024/01/04 03:30:01;;;;;;;5.95;1.17;;;9.30;99.90;;;;;;6102737;23;20389;-80
2024/01/04 03:32:29;;;;;;;4.35;1.35;;;8.90;99.90;;;;;;6078264;23;20006;-79
2024/01/04 03:35:00;;;;;;;7.85;1.45;;;9.40;99.90;;;;;;6102968;23;20006;-79
2024/01/04 03:37:29;;;;;;;5.47;1.25;;;8.90;99.90;;;;;;6103593;23;20022;-80
2024/01/04 03:39:57;;;;;;;7.00;1.42;;;9.20;99.90;;;;;;6102205;23;20006;-79
2024/01/04 03:42:27;;;;;;;4.30;1.08;;;10.80;99.90;;;;;;6102944;23;20018;-80
2024/01/04 03:44:55;;;;;;;6.95;1.23;;;9.20;99.90;;;;;;6078819;23;20006;-79
2024/01/04 03:47:22;;;;;;;8.38;1.85;;;8.70;99.90;;;;;;6101261;23;20058;-80
2024/01/04 03:49:50;;;;;;;8.05;1.85;;;8.70;99.90;;;;;;6102199;23;20081;-79
2024/01/04 03:52:17;;;;;;;8.55;1.40;;;9.30;99.90;;;;;;6101081;23;20010;-79
2024/01/04 03:54:59;;;;;;;9.30;1.42;;;8.80;99.90;;;;;;6108070;23;20021;-78
2024/01/04 03:57:26;;;;;;;6.78;1.30;;;9.20;99.90;;;;;;6101954;23;20013;-81
2024/01/04 03:59:54;;;;;;;8.52;1.40;;;9.10;99.90;;;;;;6102480;23;20057;-80
2024/01/04 04:11:04;;;;;;;9.80;1.50;;;8.90;99.90;;;;;;6161628;23;20401;-82
2024/01/04 04:13:32;;;;;;;4.25;1.33;;;8.80;99.90;;;;;;6160554;23;20041;-80
2024/01/04 04:16:01;;;;;;;9.07;1.67;;;9.00;99.90;;;;;;6133329;23;20096;-80
2024/01/04 04:18:30;;;;;;;7.40;1.58;;;9.00;99.90;;;;;;6158782;23;20021;-81
2024/01/04 04:20:58;;;;;;;6.53;1.35;;;8.90;99.90;;;;;;6158670;23;20001;-81
2024/01/04 04:23:26;;;;;;;6.22;1.30;;;9.00;99.90;;;;;;6157015;23;20006;-81
2024/01/04 04:25:55;;;;;;;9.82;1.85;;;8.70;99.90;;;;;;6162828;23;20025;-81
2024/01/04 04:28:23;;;;;;;8.55;1.65;;;8.80;99.90;;;;;;6123795;23;20017;-81
2024/01/04 04:30:52;;;;;;;6.30;1.35;;;8.10;99.90;;;;;;6166586;23;20486;-82
2024/01/04 04:33:22;;;;;;;8.07;1.58;;;9.20;99.90;;;;;;6133617;23;20017;-81
2024/01/04 04:35:49;;;;;;;8.05;1.67;;;9.20;99.90;;;;;;6159618;23;20037;-81
2024/01/04 04:38:19;;;;;;;8.60;2.25;;;9.10;99.90;;;;;;6135521;23;20336;-81
2024/01/04 04:40:48;;;;;;;7.32;2.35;;;9.10;99.90;;;;;;6136273;23;20249;-80
2024/01/04 04:43:17;;;;;;;9.02;1.90;;;8.50;99.90;;;;;;6161272;23;20001;-79
2024/01/04 04:48:21;;;;;;;7.15;1.10;;;9.20;99.90;;;;;;6127714;23;20022;-79
2024/01/04 04:51:05;;;;;;;9.52;1.52;;;8.00;99.90;;;;;;6132021;23;20010;-80
2024/01/04 04:53:33;;;;;;;8.02;1.88;;;9.10;99.90;;;;;;6130146;23;20006;-79
2024/01/04 04:56:01;;;;;;;11.60;1.77;;;9.20;99.90;;;;;;6138863;23;20010;-81
2024/01/04 04:58:30;;;;;;;8.27;1.70;;;9.20;99.90;;;;;;6142439;23;20014;-80
2024/01/04 05:01:08;;;;;;;8.82;2.28;;;9.20;99.90;;;;;;6140093;23;20029;-81
2024/01/04 05:03:36;;;;;;;10.25;1.60;;;11.30;99.90;;;;;;6138782;23;20066;-82
2024/01/04 05:06:10;;;;;;;9.15;1.30;;;9.10;99.90;;;;;;6140583;23;20018;-81
2024/01/04 05:08:53;;;;;;;4.68;1.02;;;9.20;99.90;;;;;;6140514;23;20010;-81
2024/01/04 05:11:20;;;;;;;11.63;1.38;;;9.30;99.90;;;;;;6138465;23;20221;-80
2024/01/04 05:13:51;;;;;;;7.80;1.13;;;9.30;99.90;;;;;;6132497;23;20014;-81
2024/01/04 05:16:19;;;;;;;9.55;1.55;;;9.40;99.90;;;;;;6133533;23;20425;-80
2024/01/04 05:18:49;;;;;;;10.13;2.45;;;9.20;99.90;;;;;;6132294;23;20048;-82
2024/01/04 05:21:18;;;;;;;;;;;9.10;99.90;;;;;;6132827;23;20010;-80
2024/01/04 05:23:58;;;;;;;4.82;1.10;;;9.10;99.90;;;;;;6131584;23;19924;-80
2024/01/04 05:26:50;;;;;;;6.32;1.45;;;9.60;99.90;;;;;;6137153;23;20014;-79
2024/01/04 05:29:18;;;;;;;8.90;1.73;;;9.20;99.90;;;;;;6131727;23;20013;-82
2024/01/04 05:31:46;;;;;;;5.30;1.58;;;9.60;99.90;;;;;;6146252;23;20038;-80
2024/01/04 05:34:17;;;;;;;10.68;1.75;;;9.00;99.90;;;;;;6143533;23;19990;-80
2024/01/04 05:36:46;;;;;;;9.80;1.50;;;8.90;99.90;;;;;;6131156;23;20081;-81
2024/01/04 05:39:12;;;;;;;9.35;1.30;;;8.90;99.90;;;;;;6132884;23;20010;-80
2024/01/04 05:41:48;;;;;;;4.85;1.20;;;8.90;99.90;;;;;;6131488;23;20002;-80
2024/01/04 05:44:15;;;;;;;4.35;1.63;;;8.10;99.90;;;;;;6133823;23;20073;-80
2024/01/04 05:46:44;;;;;;;11.63;1.42;;;8.90;99.90;;;;;;6106870;23;20033;-80
2024/01/04 05:49:19;;;;;;;12.50;1.70;;;8.80;99.90;;;;;;6129246;23;20383;-81
2024/01/04 05:54:27;;;;;;;8.25;1.20;;;9.00;99.90;;;;;;6184901;23;20012;-80
2024/01/04 05:56:54;;;;;;;;;;;7.30;99.90;;;;;;6148525;23;20005;-79
2024/01/04 05:59:24;;;;;;;7.38;1.55;;;7.80;99.90;;;;;;6137504;23;19916;-79
2024/01/04 06:01:56;;;;;;;7.13;1.10;;;8.80;99.90;;;;;;6136966;23;20013;-80
2024/01/04 06:04:24;;;;;;;7.82;1.25;;;9.00;99.90;;;;;;6113739;23;20005;-81
2024/01/04 06:06:58;;;;;;;7.72;1.48;;;8.90;99.90;;;;;;6164816;23;20006;-82
2024/01/04 06:13:11;;;;;;;9.38;1.33;;;8.80;99.90;;;;;;6170102;23;20084;-80
2024/01/04 06:15:42;;;;;;;10.80;1.40;;;8.70;99.90;;;;;;6143234;23;20025;-80
2024/01/04 06:18:12;;;;;;;14.50;1.67;;;8.80;99.90;;;;;;6139144;23;20009;-80
2024/01/04 06:24:04;;;;;;;12.73;1.80;;;8.90;99.90;;;;;;6176147;23;20009;-81
2024/01/04 06:26:37;;;;;;;7.75;1.58;;;9.10;99.90;;;;;;6135947;23;20046;-81
2024/01/04 06:29:06;;;;;;;10.20;1.60;;;9.30;99.90;;;;;;6138874;23;20006;-80
2024/01/04 06:31:40;;;;;;;12.52;1.95;;;7.20;99.90;;;;;;6138326;23;20080;-81
2024/01/04 06:34:13;;;;;;;10.82;2.22;;;8.40;99.90;;;;;;6138145;23;20001;-79
2024/01/04 06:36:48;;;;;;;8.10;1.60;;;9.00;99.90;;;;;;6160977;23;20052;-79
2024/01/04 06:39:20;;;;;;;15.13;2.72;;;8.90;99.90;;;;;;6164239;23;20065;-80
2024/01/04 06:41:47;;;;;;;12.43;1.90;;;8.90;99.90;;;;;;6138130;23;20016;-79
2024/01/04 06:44:19;;;;;;;10.75;1.65;;;8.90;99.90;;;;;;6157955;23;20379;-79
2024/01/04 06:46:47;;;;;;;8.25;1.92;;;9.00;99.90;;;;;;6158536;23;20008;-80
2024/01/04 06:49:15;;;;;;;9.38;1.55;;;9.10;99.90;;;;;;6156629;23;20009;-80
2024/01/04 06:51:54;;;;;;;12.13;1.90;;;9.20;99.90;;;;;;6164529;23;20032;-80
2024/01/04 06:54:27;;;;;;;12.23;1.80;;;9.30;99.90;;;;;;6139628;23;20025;-80
2024/01/04 06:56:54;;;;;;;11.88;1.80;;;9.20;99.90;;;;;;6166915;23;20049;-81
2024/01/04 06:59:24;;;;;;;10.77;1.60;;;9.10;99.90;;;;;;6152998;23;20009;-81
2024/01/04 07:01:50;;;;;;;13.88;1.83;;;9.20;99.90;;;;;;6177907;23;20001;-80
2024/01/04 07:04:19;;;;;;;14.18;2.08;;;9.10;99.90;;;;;;6151004;23;20006;-80
2024/01/04 07:06:52;;;;;;;11.93;2.00;;;9.10;99.90;;;;;;6141876;23;20310;-80
2024/01/04 07:09:30;;;;;;;7.07;1.95;;;9.00;99.90;;;;;;6146694;23;20006;-80
2024/01/04 07:11:58;;;;;;;13.82;2.20;;;9.10;99.90;;;;;;6145987;23;19994;-83
2024/01/04 07:14:28;;;;;;;9.93;2.10;;;9.10;99.90;;;;;;6150054;23;20018;-80
2024/01/04 07:17:08;;;;;;;6.05;1.65;;;9.00;99.90;;;;;;6115002;23;20049;-80
2024/01/04 07:19:46;;;;;;;10.88;1.80;;;9.00;99.90;;;;;;6115389;23;20017;-80
2024/01/04 07:30:59;;;;;;;11.30;2.08;;;8.90;99.90;;;;;;6166513;23;20407;-81
2024/01/04 07:33:37;;;;;;;10.15;2.53;;;8.50;99.90;;;;;;6155534;23;20076;-80
2024/01/04 07:36:05;;;;;;;11.98;2.20;;;9.00;99.90;;;;;;6159789;23;20025;-81
2024/01/04 07:38:34;;;;;;;10.85;1.88;;;9.00;99.90;;;;;;6141248;23;20018;-81
2024/01/04 07:41:06;;;;;;;9.23;1.70;;;8.90;99.90;;;;;;6148664;23;20016;-80
2024/01/04 07:43:40;;;;;;;11.13;2.15;;;8.90;99.90;;;;;;6149037;23;20006;-81
2024/01/04 07:47:09;;;;;;;17.60;2.28;;;8.90;99.90;;;;;;6181279;23;20072;-81
2024/01/04 07:49:48;;;;;;;12.13;1.85;;;8.60;99.90;;;;;;6147209;23;19986;-82
2024/01/04 07:58:22;;;;;;;11.38;2.00;;;9.00;99.90;;;;;;6163711;23;20025;-82
2024/01/04 08:47:15;;;;;;;13.02;1.90;;;9.20;99.90;;;;;;6164925;23;20017;-81
2024/01/04 08:50:04;;;;;;;14.52;2.10;;;9.10;99.90;;;;;;6159506;23;20021;-81
2024/01/04 08:52:37;;;;;;;11.35;2.03;;;8.20;99.90;;;;;;6112220;23;20017;-80
2024/01/04 08:55:49;;;;;;;16.70;2.50;;;8.90;99.90;;;;;;6165965;23;20006;-83
2024/01/04 08:58:42;;;;;;;8.05;1.80;;;8.80;99.90;;;;;;6171539;23;20022;-82
2024/01/04 09:01:31;;;;;;;15.57;4.63;;;9.00;99.90;;;;;;6102787;23;20084;-83
2024/01/04 09:04:37;;;;;;;13.73;2.58;;;9.30;99.90;;;;;;6174432;23;20028;-80
2024/01/04 09:07:46;;;;;;;14.93;2.53;;;9.00;99.90;;;;;;6136918;23;20064;-81
2024/01/04 09:10:43;;;;;;;13.13;2.38;;;8.90;99.90;;;;;;6156706;23;20012;-79
2024/01/04 09:13:17;;;;;;;7.38;1.80;;;8.90;99.90;;;;;;6160849;23;20036;-81
2024/01/04 09:15:58;;;;;;;13.32;2.63;;;7.70;99.90;;;;;;6172355;23;20596;-82
2024/01/04 09:18:26;;;;;;;11.82;2.08;;;8.20;99.90;;;;;;6179346;23;20013;-82
2024/01/04 09:21:12;;;;;;;10.35;2.05;;;8.90;99.90;;;;;;6150596;23;20001;-80
2024/01/04 09:23:50;;;;;;;11.63;2.17;;;10.70;99.90;;;;;;6172737;23;20004;-80
2024/01/04 09:26:20;;;;;;;7.70;1.42;;;9.10;99.90;;;;;;6145011;23;20391;-80
2024/01/04 09:29:22;;;;;;;12.95;2.28;;;10.10;99.90;;;;;;6138146;23;20336;-80
2024/01/04 09:32:10;;;;;;;14.35;1.90;;;9.10;99.90;;;;;;6135752;23;20303;-80
2024/01/04 09:35:23;;;;;;;11.10;1.98;;;9.10;99.90;;;;;;6116706;23;20021;-80
2024/01/04 09:38:34;;;;;;;11.23;1.80;;;9.20;99.90;;;;;;6117485;23;20006;-83
2024/01/04 09:41:44;;;;;;;11.32;1.63;;;9.30;99.90;;;;;;6133174;23;20002;-81
2024/01/04 09:44:38;;;;;;;14.73;2.63;;;9.20;99.90;;;;;;6131373;23;20018;-80
2024/01/04 09:50:53;;;;;;;9.70;2.30;;;9.10;99.90;;;;;;6134032;23;20021;-80
2024/01/04 10:01:21;;;;;;;10.23;1.60;;;9.00;99.90;;;;;;6050741;23;20037;-81
2024/01/04 10:04:28;;;;;;;15.30;2.15;;;9.10;99.90;;;;;;6133274;23;20017;-80
2024/01/04 10:10:33;;;;;;;8.93;1.80;;;9.40;99.90;;;;;;6143081;23;20243;-80
2024/01/04 10:13:58;;;;;;;11.10;1.95;;;9.50;99.90;;;;;;6159662;23;20013;-79
2024/01/04 10:16:38;;;;;;;14.10;2.10;;;9.50;99.90;;;;;;6153706;23;20071;-80
2024/01/04 10:20:21;;;;;;;9.45;2.00;;;9.00;99.90;;;;;;6159663;23;20009;-81
2024/01/04 10:22:55;;;;;;;10.80;2.03;;;9.50;99.90;;;;;;6163288;23;20001;-81
2024/01/04 10:25:33;;;;;;;9.50;1.77;;;8.80;99.90;;;;;;6136218;23;20012;-80
2024/01/04 10:28:39;;;;;;;6.60;1.60;;;9.40;99.90;;;;;;6165280;23;20077;-81
2024/01/04 10:31:55;;;;;;;8.07;1.70;;;9.50;99.90;;;;;;6143335;23;20008;-81
2024/01/04 10:34:44;;;;;;;9.05;1.98;;;9.50;99.90;;;;;;6171311;23;20013;-80
2024/01/04 10:38:00;;;;;;;13.40;2.05;;;9.90;99.90;;;;;;6138006;23;20053;-81
2024/01/04 10:41:07;;;;;;;13.73;1.90;;;9.10;99.90;;;;;;6137131;23;20017;-81
2024/01/04 10:43:52;;;;;;;12.25;1.83;;;9.40;99.90;;;;;;6091068;23;20033;-81
2024/01/04 10:48:59;;;;;;;10.55;2.10;;;9.50;99.90;;;;;;6168443;23;20047;-79
2024/01/04 10:51:39;;;;;;;11.43;2.15;;;9.70;99.90;;;;;;6162676;23;20446;-80
2024/01/04 10:54:21;;;;;;;15.00;3.15;;;8.30;99.90;;;;;;6156249;23;20633;-81
2024/01/04 10:56:58;;;;;;;11.10;1.98;;;9.60;99.90;;;;;;6160983;23;20002;-82
2024/01/04 11:02:47;;;;;;;12.82;2.20;;;9.90;99.90;;;;;;6164666;23;20036;-80
2024/01/04 11:05:30;;;;;;;9.73;1.85;;;9.70;99.90;;;;;;6163088;23;20055;-80
2024/01/04 11:08:12;;;;;;;10.48;2.20;;;9.50;99.90;;;;;;6136389;23;20008;-81
2024/01/04 11:10:49;;;;;;;14.75;2.67;;;9.40;99.90;;;;;;6150262;23;20019;-80
2024/01/04 11:13:42;;;;;;;15.23;2.08;;;9.90;99.90;;;;;;6169047;23;20004;-80
2024/01/04 11:16:37;;;;;;;8.32;1.90;;;10.00;99.90;;;;;;6139746;23;20044;-81
2024/01/04 11:19:48;;;;;;;8.38;1.90;;;9.60;99.90;;;;;;6180135;23;20016;-82
2024/01/04 11:22:43;;;;;;;12.88;2.08;;;8.60;99.90;;;;;;6177441;23;20041;-82
2024/01/04 11:33:23;;;;;;;13.25;2.42;;;9.80;99.90;;;;;;6159331;23;20281;-80
2024/01/04 11:38:57;;;;;;;13.27;2.33;;;10.00;99.90;;;;;;6104271;23;20462;-80
2024/01/04 11:41:41;;;;;;;11.95;2.42;;;10.10;99.90;;;;;;6119234;23;20001;-81
2024/01/04 11:44:30;;;;;;;16.25;3.05;;;10.00;99.90;;;;;;6135426;23;20002;-79
2024/01/04 11:50:34;;;;;;;8.35;1.95;;;9.70;99.90;;;;;;6181102;23;19896;-83
2024/01/04 11:53:06;;;;;;;11.05;1.92;;;9.10;99.90;;;;;;6115562;23;19998;-80
2024/01/04 11:55:52;;;;;;;;;;;9.30;99.90;;;;;;6158615;23;19998;-79
2024/01/04 11:58:28;;;;;;;11.13;1.80;;;9.20;99.90;;;;;;6156272;23;19909;-80
2024/01/04 12:00:57;;;;;;;10.30;2.45;;;9.10;99.90;;;;;;6132088;23;20080;-81
2024/01/04 12:03:29;;;;;;;7.88;1.80;;;9.00;99.90;;;;;;6132298;23;20005;-80
2024/01/04 12:05:56;;;;;;;8.13;1.63;;;9.00;99.90;;;;;;6132117;23;20336;-80
2024/01/04 12:08:28;;;;;;;9.20;1.30;;;9.10;99.90;;;;;;6157303;23;20029;-79
2024/01/04 12:11:07;;;;;;;9.10;1.75;;;9.20;99.90;;;;;;6159309;23;20044;-80
2024/01/04 12:13:34;;;;;;;12.45;2.08;;;9.30;99.90;;;;;;6130258;23;20412;-80
2024/01/04 12:16:05;;;;;;;9.73;2.28;;;9.20;99.90;;;;;;6130565;23;20081;-80
2024/01/04 12:18:32;;;;;;;11.70;2.40;;;9.20;99.90;;;;;;6132475;23;20028;-79
2024/01/04 12:21:08;;;;;;;10.82;2.17;;;9.20;99.90;;;;;;6157806;23;19998;-81
2024/01/04 12:23:39;;;;;;;7.85;2.30;;;9.30;99.90;;;;;;6110400;23;20029;-81
2024/01/04 12:26:06;;;;;;;13.25;2.35;;;9.40;99.90;;;;;;6108241;23;20013;-81
2024/01/04 12:28:33;;;;;;;14.30;2.50;;;9.40;99.90;;;;;;6133046;23;20315;-81
2024/01/04 12:31:04;;;;;;;12.15;2.33;;;9.50;99.90;;;;;;6132445;23;20088;-80
2024/01/04 12:33:30;;;;;;;9.07;2.28;;;9.50;99.90;;;;;;6127675;23;20040;-79
2024/01/04 12:35:59;;;;;;;9.07;2.17;;;9.70;99.90;;;;;;6159645;23;20012;-80
2024/01/04 12:38:29;;;;;;;8.27;1.98;;;9.80;99.90;;;;;;6159638;23;20084;-80
2024/01/04 12:40:55;;;;;;;15.10;2.95;;;9.80;99.90;;;;;;6132501;23;20081;-80
2024/01/04 12:43:21;;;;;;;6.60;1.50;;;11.50;99.90;;;;;;6132311;23;20459;-80
2024/01/04 12:45:49;;;;;;;11.63;2.10;;;8.90;99.90;;;;;;6158485;23;20006;-79
2024/01/04 12:48:20;;;;;;;9.43;1.67;;;9.80;99.90;;;;;;6132589;23;20002;-79
2024/01/04 12:50:50;;;;;;;14.38;2.40;;;10.90;99.90;;;;;;6131974;23;20008;-81
2024/01/04 12:53:17;;;;;;;14.10;2.05;;;;;;;;;;6163751;23;20001;-80
2024/01/04 12:55:43;;;;;;;10.35;1.80;;;10.10;99.90;;;;;;6143920;23;20061;-78
2024/01/04 12:58:11;;;;;;;16.63;3.13;;;9.40;99.90;;;;;;6163174;23;20052;-80
2024/01/04 13:00:46;;;;;;;8.40;1.73;;;10.00;99.90;;;;;;6158695;23;20002;-79
2024/01/04 13:03:13;;;;;;;9.00;1.65;;;10.00;99.90;;;;;;6132198;23;20001;-80
2024/01/04 13:05:44;;;;;;;11.30;1.95;;;10.10;99.90;;;;;;6133547;23;20002;-79
2024/01/04 13:08:18;;;;;;;13.98;2.47;;;10.00;99.90;;;;;;6135949;23;20002;-80
2024/01/04 13:10:45;;;;;;;12.18;2.30;;;8.70;99.90;;;;;;6164104;23;20055;-79
2024/01/04 13:13:16;;;;;;;12.63;1.88;;;10.00;99.90;;;;;;6161874;23;20005;-80
2024/01/04 13:15:43;;;;;;;11.57;2.00;;;10.20;99.90;;;;;;6157649;23;20001;-79
2024/01/04 13:18:09;;;;;;;8.15;1.85;;;10.20;99.90;;;;;;6133491;23;20002;-80
2024/01/04 13:20:38;;;;;;;11.60;2.53;;;10.30;99.90;;;;;;6159761;23;20021;-81
2024/01/04 13:23:08;;;;;;;13.00;2.00;;;10.40;99.90;;;;;;6133125;23;20044;-80
2024/01/04 13:25:35;;;;;;;10.63;2.10;;;10.40;99.90;;;;;;6158835;23;19998;-80
2024/01/04 13:28:02;;;;;;;13.10;2.15;;;10.40;99.90;;;;;;6136357;23;20036;-81
2024/01/04 13:30:31;;;;;;;12.30;2.13;;;10.30;99.90;;;;;;6163009;23;20352;-80
2024/01/04 13:33:00;;;;;;;11.10;2.70;;;10.30;99.90;;;;;;6109558;23;20017;-81
2024/01/04 13:35:26;;;;;;;16.42;2.83;;;10.20;99.90;;;;;;6136060;23;20017;-80
2024/01/04 13:37:58;;;;;;;9.38;2.20;;;10.20;99.90;;;;;;6144372;23;20475;-80
2024/01/04 13:40:25;;;;;;;14.88;2.53;;;9.60;99.90;;;;;;6169919;23;20376;-80
2024/01/04 13:42:55;;;;;;;8.35;1.67;;;9.80;99.90;;;;;;6138842;23;20009;-80
2024/01/04 13:45:35;;;;;;;12.68;2.30;;;10.30;99.90;;;;;;6161896;23;20006;-80
2024/01/04 13:48:01;;;;;;;9.35;1.90;;;10.20;99.90;;;;;;6130155;23;20081;-80
2024/01/04 13:50:30;;;;;;;10.98;1.83;;;10.20;99.90;;;;;;6106603;23;20009;-80
2024/01/04 13:53:02;;;;;;;14.43;2.55;;;10.20;99.90;;;;;;6133998;23;20523;-79
2024/01/04 13:55:28;;;;;;;10.82;2.47;;;10.10;99.90;;;;;;6162981;23;20025;-80
2024/01/04 13:58:06;;;;;;;11.68;2.00;;;10.10;99.90;;;;;;6113364;23;20016;-80
2024/01/04 14:00:33;;;;;;;15.30;2.33;;;8.60;99.90;;;;;;6137262;23;20322;-80
2024/01/04 14:03:02;;;;;;;11.55;2.45;;;10.00;99.90;;;;;;6109937;23;20005;-80
2024/01/04 14:05:28;;;;;;;9.88;2.20;;;10.10;99.90;;;;;;6133041;23;20550;-80
2024/01/04 14:07:57;;;;;;;14.23;2.53;;;10.00;99.90;;;;;;6132704;23;19998;-80
2024/01/04 14:10:24;;;;;;;13.50;2.20;;;10.00;99.90;;;;;;6131830;23;20006;-80
2024/01/04 14:12:51;;;;;;;10.18;2.13;;;12.60;99.90;;;;;;6134661;23;20091;-80
2024/01/04 14:15:17;;;;;;;10.90;2.42;;;12.00;99.90;;;;;;6133168;23;20006;-80
2024/01/04 14:17:45;;;;;;;14.63;3.00;;;10.30;99.90;;;;;;6160599;23;20010;-81
2024/01/04 14:20:14;;;;;;;17.98;2.30;;;10.80;99.90;;;;;;6162837;23;20010;-81
2024/01/04 14:22:44;;;;;;;9.77;1.90;;;10.30;99.90;;;;;;6138363;23;20009;-80
2024/01/04 14:25:12;;;;;;;8.95;2.00;;;9.40;99.90;;;;;;6160896;23;20082;-80
2024/01/04 14:27:39;;;;;;;12.73;2.40;;;10.00;99.90;;;;;;6136824;23;20002;-82
2024/01/04 14:30:06;;;;;;;14.00;2.30;;;10.20;99.90;;;;;;6163523;23;20088;-81
2024/01/04 14:32:40;;;;;;;9.70;1.77;;;9.90;99.90;;;;;;6137506;23;20097;-81
2024/01/04 14:35:07;;;;;;;11.48;2.10;;;9.80;99.90;;;;;;6139263;23;20045;-81
2024/01/04 14:37:39;;;;;;;10.27;2.05;;;9.80;99.90;;;;;;6143725;23;20085;-80
2024/01/04 14:40:07;;;;;;;10.63;2.55;;;9.80;99.90;;;;;;6172501;23;20329;-81
2024/01/04 14:42:34;;;;;;;14.20;2.15;;;9.90;99.90;;;;;;6170402;23;20077;-81
2024/01/04 14:45:02;;;;;;;9.93;2.03;;;9.80;99.90;;;;;;6166723;23;20017;-80
2024/01/04 14:47:29;;;;;;;12.63;2.20;;;9.80;99.90;;;;;;6147435;23;20010;-82
2024/01/04 14:49:59;;;;;;;7.55;1.95;;;10.30;99.90;;;;;;6176960;23;20014;-81
2024/01/04 14:52:26;;;;;;;10.75;2.22;;;;;;;;;;6152182;23;20009;-81
2024/01/04 14:54:55;;;;;;;9.85;2.13;;;9.80;99.90;;;;;;6176863;23;20458;-80
2024/01/04 14:57:23;;;;;;;13.25;2.35;;;9.70;99.90;;;;;;6150043;23;20010;-80
2024/01/04 14:59:50;;;;;;;10.80;2.28;;;9.80;99.90;;;;;;6153334;23;20025;-81
2024/01/04 15:02:16;;;;;;;11.13;2.25;;;9.70;99.90;;;;;;6152240;23;19990;-80
2024/01/04 15:04:44;;;;;;;11.05;2.30;;;9.70;99.90;;;;;;6175559;23;20028;-82
2024/01/04 15:07:13;;;;;;;11.43;2.10;;;9.80;99.90;;;;;;6146938;23;20057;-81
2024/01/04 15:09:49;;;;;;;7.40;1.60;;;9.80;99.90;;;;;;6147083;23;20032;-82
2024/01/04 15:12:26;;;;;;;13.07;2.17;;;11.80;99.90;;;;;;6144919;23;20013;-81
2024/01/04 15:14:55;;;;;;;8.55;1.80;;;9.30;99.90;;;;;;6164370;23;20080;-81
2024/01/04 15:17:31;;;;;;;11.38;2.45;;;7.40;99.90;;;;;;6164336;23;20033;-80
2024/01/04 15:20:03;;;;;;;13.93;2.22;;;8.60;99.90;;;;;;6164103;23;20081;-81
2024/01/04 15:22:30;;;;;;;10.77;2.30;;;9.50;99.90;;;;;;6138289;23;20400;-80
2024/01/04 15:24:58;;;;;;;15.35;2.45;;;9.60;99.90;;;;;;6138298;23;20012;-80
2024/01/04 15:27:26;;;;;;;11.02;2.30;;;9.70;99.90;;;;;;6150620;23;20045;-80
2024/01/04 15:29:52;;;;;;;12.38;2.53;;;10.10;99.90;;;;;;6162817;23;20012;-80
2024/01/04 15:32:28;;;;;;;17.38;3.00;;;12.00;99.90;;;;;;6164588;23;20008;-80
2024/01/04 15:34:55;;;;;;;16.75;5.57;;;8.40;99.90;;;;;;6163565;23;20009;-80
2024/01/04 15:37:29;;;;;;;24.70;10.18;;;9.50;99.90;;;;;;6164854;23;20203;-81
2024/01/04 15:39:56;;;;;;;13.98;3.10;;;9.20;99.90;;;;;;6143657;23;20005;-81
2024/01/04 15:42:24;;;;;;;13.23;3.55;;;9.70;99.90;;;;;;6174491;23;20344;-82